sensor_id;sensor_type;location;lat;lon;timestamp;P1;durP1;ratioP1;P2;durP2;ratioP2
2646;SDS011;1333;50.958;6.770;2023-05-10T00:01:39;7.10;;;6.40;;
2646;SDS011;1333;50.958;6.770;2023-05-10T00:04:05;5.90;;;5.27;;
2646;SDS011;1333;50.958;6.770;2023-05-10T00:06:31;6.90;;;5.67;;
2646;SDS011;1333;50.958;6.770;2023-05-10T00:08:57;8.13;;;5.87;;
2646;SDS011;1333;50.958;6.770;2023-05-10T00:11:22;10.00;;;5.90;;
2646;SDS011;1333;50.958;6.770;2023-05-10T00:13:48;7.83;;;6.47;;
2646;SDS011;1333;50.958;6.770;2023-05-10T00:16:13;8.03;;;6.20;;
2646;SDS011;1333;50.958;6.770;2023-05-10T00:18:39;9.57;;;5.63;;
2646;SDS011;1333;50.958;6.770;2023-05-10T00:21:05;8.37;;;6.63;;
2646;SDS011;1333;50.958;6.770;2023-05-10T00:23:31;11.10;;;6.70;;
2646;SDS011;1333;50.958;6.770;2023-05-10T00:25:56;8.67;;;6.00;;
2646;SDS011;1333;50.958;6.770;2023-05-10T00:28:22;8.10;;;6.33;;
2646;SDS011;1333;50.958;6.770;2023-05-10T00:30:48;6.93;;;5.80;;
2646;SDS011;1333;50.958;6.770;2023-05-10T00:33:13;8.63;;;6.73;;
2646;SDS011;1333;50.958;6.770;2023-05-10T00:35:39;9.50;;;6.70;;
2646;SDS011;1333;50.958;6.770;2023-05-10T00:38:05;8.50;;;7.00;;
2646;SDS011;1333;50.958;6.770;2023-05-10T00:40:31;9.60;;;5.73;;
2646;SDS011;1333;50.958;6.770;2023-05-10T00:42:57;10.33;;;7.10;;
2646;SDS011;1333;50.958;6.770;2023-05-10T00:45:24;7.90;;;6.60;;
2646;SDS011;1333;50.958;6.770;2023-05-10T00:47:50;7.67;;;5.67;;
2646;SDS011;1333;50.958;6.770;2023-05-10T00:50:19;7.00;;;5.80;;
2646;SDS011;1333;50.958;6.770;2023-05-10T00:52:46;6.77;;;4.77;;
2646;SDS011;1333;50.958;6.770;2023-05-10T00:55:11;10.37;;;6.30;;
2646;SDS011;1333;50.958;6.770;2023-05-10T00:57:37;7.67;;;5.70;;
2646;SDS011;1333;50.958;6.770;2023-05-10T01:00:03;7.57;;;6.00;;
2646;SDS011;1333;50.958;6.770;2023-05-10T01:02:29;6.47;;;4.63;;
2646;SDS011;1333;50.958;6.770;2023-05-10T01:04:55;5.10;;;4.30;;
2646;SDS011;1333;50.958;6.770;2023-05-10T01:07:20;5.83;;;5.23;;
2646;SDS011;1333;50.958;6.770;2023-05-10T01:09:46;7.83;;;5.60;;
2646;SDS011;1333;50.958;6.770;2023-05-10T01:12:12;10.10;;;6.50;;
2646;SDS011;1333;50.958;6.770;2023-05-10T01:14:37;9.93;;;6.67;;
2646;SDS011;1333;50.958;6.770;2023-05-10T01:17:04;8.73;;;5.43;;
2646;SDS011;1333;50.958;6.770;2023-05-10T01:19:31;7.50;;;5.53;;
2646;SDS011;1333;50.958;6.770;2023-05-10T01:25:05;10.63;;;6.27;;
2646;SDS011;1333;50.958;6.770;2023-05-10T01:33:30;10.27;;;6.40;;
2646;SDS011;1333;50.958;6.770;2023-05-10T01:36:30;6.67;;;5.17;;
2646;SDS011;1333;50.958;6.770;2023-05-10T01:41:48;9.00;;;6.63;;
2646;SDS011;1333;50.958;6.770;2023-05-10T01:44:20;8.30;;;6.03;;
2646;SDS011;1333;50.958;6.770;2023-05-10T01:50:00;10.17;;;5.93;;
2646;SDS011;1333;50.958;6.770;2023-05-10T01:52:32;6.50;;;4.70;;
2646;SDS011;1333;50.958;6.770;2023-05-10T01:55:01;7.60;;;6.23;;
2646;SDS011;1333;50.958;6.770;2023-05-10T01:57:32;4.80;;;4.27;;
2646;SDS011;1333;50.958;6.770;2023-05-10T02:00:01;5.40;;;4.03;;
2646;SDS011;1333;50.958;6.770;2023-05-10T02:02:28;5.63;;;3.67;;
2646;SDS011;1333;50.958;6.770;2023-05-10T02:04:58;6.90;;;4.13;;
2646;SDS011;1333;50.958;6.770;2023-05-10T02:07:24;5.23;;;4.53;;
2646;SDS011;1333;50.958;6.770;2023-05-10T02:09:53;4.13;;;3.30;;
2646;SDS011;1333;50.958;6.770;2023-05-10T02:12:20;6.13;;;3.93;;
2646;SDS011;1333;50.958;6.770;2023-05-10T02:14:47;5.17;;;4.17;;
2646;SDS011;1333;50.958;6.770;2023-05-10T02:17:13;6.80;;;4.97;;
2646;SDS011;1333;50.958;6.770;2023-05-10T02:19:40;7.03;;;4.20;;
2646;SDS011;1333;50.958;6.770;2023-05-10T02:22:06;3.60;;;3.30;;
2646;SDS011;1333;50.958;6.770;2023-05-10T02:24:33;6.97;;;4.80;;
2646;SDS011;1333;50.958;6.770;2023-05-10T02:27:01;6.10;;;4.60;;
2646;SDS011;1333;50.958;6.770;2023-05-10T02:29:28;6.73;;;4.50;;
2646;SDS011;1333;50.958;6.770;2023-05-10T02:31:56;5.70;;;4.50;;
2646;SDS011;1333;50.958;6.770;2023-05-10T02:34:23;5.80;;;5.10;;
2646;SDS011;1333;50.958;6.770;2023-05-10T02:36:51;5.70;;;4.80;;
2646;SDS011;1333;50.958;6.770;2023-05-10T02:39:18;7.60;;;6.30;;
2646;SDS011;1333;50.958;6.770;2023-05-10T02:41:45;8.20;;;5.80;;
2646;SDS011;1333;50.958;6.770;2023-05-10T02:44:13;8.20;;;5.57;;
2646;SDS011;1333;50.958;6.770;2023-05-10T02:46:40;9.30;;;5.53;;
2646;SDS011;1333;50.958;6.770;2023-05-10T02:49:06;9.40;;;5.60;;
2646;SDS011;1333;50.958;6.770;2023-05-10T02:51:32;7.40;;;5.87;;
2646;SDS011;1333;50.958;6.770;2023-05-10T02:54:03;9.07;;;5.40;;
2646;SDS011;1333;50.958;6.770;2023-05-10T02:56:35;7.80;;;5.77;;
2646;SDS011;1333;50.958;6.770;2023-05-10T02:59:04;9.17;;;5.97;;
2646;SDS011;1333;50.958;6.770;2023-05-10T03:01:30;9.00;;;5.37;;
2646;SDS011;1333;50.958;6.770;2023-05-10T03:03:55;7.17;;;5.03;;
2646;SDS011;1333;50.958;6.770;2023-05-10T03:06:21;6.73;;;4.57;;
2646;SDS011;1333;50.958;6.770;2023-05-10T03:08:46;6.13;;;5.07;;
2646;SDS011;1333;50.958;6.770;2023-05-10T03:14:01;4.93;;;4.20;;
2646;SDS011;1333;50.958;6.770;2023-05-10T03:16:47;8.40;;;5.60;;
2646;SDS011;1333;50.958;6.770;2023-05-10T03:19:30;8.43;;;5.73;;
2646;SDS011;1333;50.958;6.770;2023-05-10T03:22:05;9.13;;;5.40;;
2646;SDS011;1333;50.958;6.770;2023-05-10T03:24:33;7.17;;;5.30;;
2646;SDS011;1333;50.958;6.770;2023-05-10T03:27:01;6.60;;;4.97;;
2646;SDS011;1333;50.958;6.770;2023-05-10T03:29:29;5.10;;;4.53;;
2646;SDS011;1333;50.958;6.770;2023-05-10T03:31:57;5.60;;;4.33;;
2646;SDS011;1333;50.958;6.770;2023-05-10T03:34:24;5.87;;;4.50;;
2646;SDS011;1333;50.958;6.770;2023-05-10T03:36:50;6.57;;;4.50;;
2646;SDS011;1333;50.958;6.770;2023-05-10T03:39:15;7.57;;;4.70;;
2646;SDS011;1333;50.958;6.770;2023-05-10T03:41:41;9.00;;;6.00;;
2646;SDS011;1333;50.958;6.770;2023-05-10T03:44:07;6.47;;;5.10;;
2646;SDS011;1333;50.958;6.770;2023-05-10T03:46:32;9.57;;;5.10;;
2646;SDS011;1333;50.958;6.770;2023-05-10T03:48:58;8.80;;;6.90;;
2646;SDS011;1333;50.958;6.770;2023-05-10T03:51:24;10.73;;;6.33;;
2646;SDS011;1333;50.958;6.770;2023-05-10T03:53:53;10.67;;;7.30;;
2646;SDS011;1333;50.958;6.770;2023-05-10T03:56:18;12.60;;;8.33;;
2646;SDS011;1333;50.958;6.770;2023-05-10T03:58:45;13.07;;;7.40;;
2646;SDS011;1333;50.958;6.770;2023-05-10T04:01:11;12.90;;;8.40;;
2646;SDS011;1333;50.958;6.770;2023-05-10T04:03:36;12.83;;;8.27;;
2646;SDS011;1333;50.958;6.770;2023-05-10T04:06:03;15.07;;;7.83;;
2646;SDS011;1333;50.958;6.770;2023-05-10T04:08:28;11.40;;;7.20;;
2646;SDS011;1333;50.958;6.770;2023-05-10T04:10:54;12.03;;;7.90;;
2646;SDS011;1333;50.958;6.770;2023-05-10T04:13:29;15.20;;;9.40;;
2646;SDS011;1333;50.958;6.770;2023-05-10T04:15:54;13.43;;;8.03;;
2646;SDS011;1333;50.958;6.770;2023-05-10T04:18:21;16.87;;;9.20;;
2646;SDS011;1333;50.958;6.770;2023-05-10T04:20:46;22.03;;;14.20;;
2646;SDS011;1333;50.958;6.770;2023-05-10T04:23:12;15.17;;;9.60;;
2646;SDS011;1333;50.958;6.770;2023-05-10T04:25:39;12.43;;;9.47;;
2646;SDS011;1333;50.958;6.770;2023-05-10T04:28:04;13.80;;;8.20;;
2646;SDS011;1333;50.958;6.770;2023-05-10T04:30:30;13.50;;;9.27;;
2646;SDS011;1333;50.958;6.770;2023-05-10T04:32:55;15.10;;;9.63;;
2646;SDS011;1333;50.958;6.770;2023-05-10T04:35:21;12.60;;;9.00;;
2646;SDS011;1333;50.958;6.770;2023-05-10T04:37:46;10.83;;;7.60;;
2646;SDS011;1333;50.958;6.770;2023-05-10T04:40:12;12.03;;;8.60;;
2646;SDS011;1333;50.958;6.770;2023-05-10T04:42:39;12.07;;;8.03;;
2646;SDS011;1333;50.958;6.770;2023-05-10T04:45:06;13.07;;;7.43;;
2646;SDS011;1333;50.958;6.770;2023-05-10T04:47:32;10.00;;;7.30;;
2646;SDS011;1333;50.958;6.770;2023-05-10T04:49:57;8.33;;;6.93;;
2646;SDS011;1333;50.958;6.770;2023-05-10T04:52:23;15.70;;;8.13;;
2646;SDS011;1333;50.958;6.770;2023-05-10T04:54:49;13.40;;;8.33;;
2646;SDS011;1333;50.958;6.770;2023-05-10T04:57:15;9.97;;;6.90;;
2646;SDS011;1333;50.958;6.770;2023-05-10T04:59:41;11.93;;;6.23;;
2646;SDS011;1333;50.958;6.770;2023-05-10T05:02:07;11.60;;;6.80;;
2646;SDS011;1333;50.958;6.770;2023-05-10T05:04:33;11.30;;;7.23;;
2646;SDS011;1333;50.958;6.770;2023-05-10T05:06:58;10.90;;;8.43;;
2646;SDS011;1333;50.958;6.770;2023-05-10T05:09:24;12.07;;;8.63;;
2646;SDS011;1333;50.958;6.770;2023-05-10T05:11:49;12.00;;;7.83;;
2646;SDS011;1333;50.958;6.770;2023-05-10T05:14:15;13.23;;;7.43;;
2646;SDS011;1333;50.958;6.770;2023-05-10T05:16:40;13.37;;;6.57;;
2646;SDS011;1333;50.958;6.770;2023-05-10T05:19:06;10.10;;;6.63;;
2646;SDS011;1333;50.958;6.770;2023-05-10T05:21:31;15.03;;;7.73;;
2646;SDS011;1333;50.958;6.770;2023-05-10T05:23:57;12.13;;;6.40;;
2646;SDS011;1333;50.958;6.770;2023-05-10T05:26:23;8.55;;;5.50;;
2646;SDS011;1333;50.958;6.770;2023-05-10T05:28:48;9.13;;;7.47;;
2646;SDS011;1333;50.958;6.770;2023-05-10T05:31:17;11.50;;;6.33;;
2646;SDS011;1333;50.958;6.770;2023-05-10T05:33:42;17.33;;;6.80;;
2646;SDS011;1333;50.958;6.770;2023-05-10T05:36:08;10.23;;;6.50;;
2646;SDS011;1333;50.958;6.770;2023-05-10T05:38:34;11.43;;;6.53;;
2646;SDS011;1333;50.958;6.770;2023-05-10T05:40:59;9.80;;;5.70;;
2646;SDS011;1333;50.958;6.770;2023-05-10T05:43:25;9.00;;;6.33;;
2646;SDS011;1333;50.958;6.770;2023-05-10T05:45:54;8.67;;;5.97;;
2646;SDS011;1333;50.958;6.770;2023-05-10T05:48:20;11.33;;;6.03;;
2646;SDS011;1333;50.958;6.770;2023-05-10T05:50:45;9.33;;;6.13;;
2646;SDS011;1333;50.958;6.770;2023-05-10T05:53:11;17.63;;;7.07;;
2646;SDS011;1333;50.958;6.770;2023-05-10T05:55:37;8.10;;;5.93;;
2646;SDS011;1333;50.958;6.770;2023-05-10T05:58:02;8.60;;;4.87;;
2646;SDS011;1333;50.958;6.770;2023-05-10T06:00:28;11.30;;;6.70;;
2646;SDS011;1333;50.958;6.770;2023-05-10T06:02:53;8.53;;;5.33;;
2646;SDS011;1333;50.958;6.770;2023-05-10T06:05:19;8.50;;;5.57;;
2646;SDS011;1333;50.958;6.770;2023-05-10T06:07:45;9.60;;;6.63;;
2646;SDS011;1333;50.958;6.770;2023-05-10T06:10:11;10.70;;;6.10;;
2646;SDS011;1333;50.958;6.770;2023-05-10T06:12:36;9.30;;;6.80;;
2646;SDS011;1333;50.958;6.770;2023-05-10T06:15:02;10.10;;;6.27;;
2646;SDS011;1333;50.958;6.770;2023-05-10T06:17:28;7.73;;;5.97;;
2646;SDS011;1333;50.958;6.770;2023-05-10T06:19:54;8.87;;;6.80;;
2646;SDS011;1333;50.958;6.770;2023-05-10T06:22:20;7.63;;;6.50;;
2646;SDS011;1333;50.958;6.770;2023-05-10T06:24:47;10.60;;;6.30;;
2646;SDS011;1333;50.958;6.770;2023-05-10T06:27:13;8.03;;;5.97;;
2646;SDS011;1333;50.958;6.770;2023-05-10T06:29:38;11.47;;;6.53;;
2646;SDS011;1333;50.958;6.770;2023-05-10T06:32:04;11.60;;;6.60;;
2646;SDS011;1333;50.958;6.770;2023-05-10T06:34:30;9.40;;;6.30;;
2646;SDS011;1333;50.958;6.770;2023-05-10T06:36:55;11.73;;;6.57;;
2646;SDS011;1333;50.958;6.770;2023-05-10T06:39:21;13.43;;;8.17;;
2646;SDS011;1333;50.958;6.770;2023-05-10T06:41:46;12.77;;;7.20;;
2646;SDS011;1333;50.958;6.770;2023-05-10T06:44:12;10.57;;;7.57;;
2646;SDS011;1333;50.958;6.770;2023-05-10T06:46:37;8.83;;;6.37;;
2646;SDS011;1333;50.958;6.770;2023-05-10T06:49:03;11.63;;;7.20;;
2646;SDS011;1333;50.958;6.770;2023-05-10T06:51:29;8.07;;;5.90;;
2646;SDS011;1333;50.958;6.770;2023-05-10T06:53:55;9.07;;;6.13;;
2646;SDS011;1333;50.958;6.770;2023-05-10T06:56:20;9.40;;;5.63;;
2646;SDS011;1333;50.958;6.770;2023-05-10T06:58:46;12.33;;;8.10;;
2646;SDS011;1333;50.958;6.770;2023-05-10T07:01:12;11.60;;;6.63;;
2646;SDS011;1333;50.958;6.770;2023-05-10T07:03:38;8.30;;;5.90;;
2646;SDS011;1333;50.958;6.770;2023-05-10T07:06:04;11.37;;;6.37;;
2646;SDS011;1333;50.958;6.770;2023-05-10T07:08:33;9.00;;;6.80;;
2646;SDS011;1333;50.958;6.770;2023-05-10T07:11:02;9.83;;;6.77;;
2646;SDS011;1333;50.958;6.770;2023-05-10T07:13:32;9.23;;;5.40;;
2646;SDS011;1333;50.958;6.770;2023-05-10T07:15:58;9.13;;;6.27;;
2646;SDS011;1333;50.958;6.770;2023-05-10T07:18:25;8.23;;;6.10;;
2646;SDS011;1333;50.958;6.770;2023-05-10T07:20:51;9.70;;;6.37;;
2646;SDS011;1333;50.958;6.770;2023-05-10T07:23:16;9.23;;;7.13;;
2646;SDS011;1333;50.958;6.770;2023-05-10T07:25:49;6.97;;;5.50;;
2646;SDS011;1333;50.958;6.770;2023-05-10T07:28:17;6.33;;;5.40;;
2646;SDS011;1333;50.958;6.770;2023-05-10T07:30:43;7.00;;;5.90;;
2646;SDS011;1333;50.958;6.770;2023-05-10T07:33:09;6.30;;;4.80;;
2646;SDS011;1333;50.958;6.770;2023-05-10T07:35:36;8.73;;;6.53;;
2646;SDS011;1333;50.958;6.770;2023-05-10T07:38:02;8.40;;;6.40;;
2646;SDS011;1333;50.958;6.770;2023-05-10T07:40:28;9.90;;;5.57;;
2646;SDS011;1333;50.958;6.770;2023-05-10T07:42:53;7.60;;;6.00;;
2646;SDS011;1333;50.958;6.770;2023-05-10T07:45:19;5.07;;;4.50;;
2646;SDS011;1333;50.958;6.770;2023-05-10T07:47:45;5.20;;;4.70;;
2646;SDS011;1333;50.958;6.770;2023-05-10T07:50:10;5.47;;;4.57;;
2646;SDS011;1333;50.958;6.770;2023-05-10T07:52:36;6.77;;;4.10;;
2646;SDS011;1333;50.958;6.770;2023-05-10T07:55:01;5.67;;;4.17;;
2646;SDS011;1333;50.958;6.770;2023-05-10T07:57:27;8.17;;;4.53;;
2646;SDS011;1333;50.958;6.770;2023-05-10T07:59:52;7.63;;;4.27;;
2646;SDS011;1333;50.958;6.770;2023-05-10T08:02:18;6.10;;;4.70;;
2646;SDS011;1333;50.958;6.770;2023-05-10T08:04:43;5.80;;;3.70;;
2646;SDS011;1333;50.958;6.770;2023-05-10T08:07:09;6.17;;;4.40;;
2646;SDS011;1333;50.958;6.770;2023-05-10T08:09:35;5.30;;;3.77;;
2646;SDS011;1333;50.958;6.770;2023-05-10T08:12:01;6.47;;;4.27;;
2646;SDS011;1333;50.958;6.770;2023-05-10T08:14:28;6.10;;;4.40;;
2646;SDS011;1333;50.958;6.770;2023-05-10T08:16:54;8.63;;;4.50;;
2646;SDS011;1333;50.958;6.770;2023-05-10T08:19:20;7.97;;;4.40;;
2646;SDS011;1333;50.958;6.770;2023-05-10T08:21:46;12.20;;;5.73;;
2646;SDS011;1333;50.958;6.770;2023-05-10T08:24:12;6.97;;;4.77;;
2646;SDS011;1333;50.958;6.770;2023-05-10T08:26:38;8.33;;;6.20;;
2646;SDS011;1333;50.958;6.770;2023-05-10T08:29:03;5.43;;;4.20;;
2646;SDS011;1333;50.958;6.770;2023-05-10T08:31:29;10.67;;;4.33;;
2646;SDS011;1333;50.958;6.770;2023-05-10T08:33:55;8.40;;;4.63;;
2646;SDS011;1333;50.958;6.770;2023-05-10T08:36:20;5.87;;;5.30;;
2646;SDS011;1333;50.958;6.770;2023-05-10T08:38:51;5.20;;;4.37;;
2646;SDS011;1333;50.958;6.770;2023-05-10T08:41:19;6.03;;;5.10;;
2646;SDS011;1333;50.958;6.770;2023-05-10T08:43:46;7.73;;;4.50;;
2646;SDS011;1333;50.958;6.770;2023-05-10T08:46:14;8.50;;;5.30;;
2646;SDS011;1333;50.958;6.770;2023-05-10T08:48:43;5.77;;;4.80;;
2646;SDS011;1333;50.958;6.770;2023-05-10T08:51:13;8.50;;;5.43;;
2646;SDS011;1333;50.958;6.770;2023-05-10T08:53:40;5.30;;;4.43;;
2646;SDS011;1333;50.958;6.770;2023-05-10T08:56:06;6.83;;;4.33;;
2646;SDS011;1333;50.958;6.770;2023-05-10T08:58:32;6.87;;;5.27;;
2646;SDS011;1333;50.958;6.770;2023-05-10T09:00:57;5.30;;;4.33;;
2646;SDS011;1333;50.958;6.770;2023-05-10T09:03:25;4.93;;;3.80;;
2646;SDS011;1333;50.958;6.770;2023-05-10T09:05:51;6.97;;;4.67;;
2646;SDS011;1333;50.958;6.770;2023-05-10T09:08:17;4.57;;;3.90;;
2646;SDS011;1333;50.958;6.770;2023-05-10T09:10:43;5.93;;;4.60;;
2646;SDS011;1333;50.958;6.770;2023-05-10T09:13:09;9.30;;;5.00;;
2646;SDS011;1333;50.958;6.770;2023-05-10T09:15:36;7.93;;;5.83;;
2646;SDS011;1333;50.958;6.770;2023-05-10T09:18:02;10.07;;;6.50;;
2646;SDS011;1333;50.958;6.770;2023-05-10T09:20:28;8.40;;;5.87;;
2646;SDS011;1333;50.958;6.770;2023-05-10T09:22:53;7.83;;;5.37;;
2646;SDS011;1333;50.958;6.770;2023-05-10T09:25:19;7.20;;;5.10;;
2646;SDS011;1333;50.958;6.770;2023-05-10T09:27:45;8.43;;;6.00;;
2646;SDS011;1333;50.958;6.770;2023-05-10T09:30:25;9.87;;;7.03;;
2646;SDS011;1333;50.958;6.770;2023-05-10T09:32:52;7.03;;;6.33;;
2646;SDS011;1333;50.958;6.770;2023-05-10T09:35:19;7.57;;;6.17;;
2646;SDS011;1333;50.958;6.770;2023-05-10T09:37:47;13.00;;;6.80;;
2646;SDS011;1333;50.958;6.770;2023-05-10T09:40:15;9.97;;;5.83;;
2646;SDS011;1333;50.958;6.770;2023-05-10T09:42:43;10.03;;;6.93;;
2646;SDS011;1333;50.958;6.770;2023-05-10T09:45:16;7.90;;;5.37;;
2646;SDS011;1333;50.958;6.770;2023-05-10T09:47:42;10.23;;;6.80;;
2646;SDS011;1333;50.958;6.770;2023-05-10T09:50:08;8.27;;;6.93;;
2646;SDS011;1333;50.958;6.770;2023-05-10T09:55:17;5.73;;;4.77;;
2646;SDS011;1333;50.958;6.770;2023-05-10T09:57:45;8.80;;;4.80;;
2646;SDS011;1333;50.958;6.770;2023-05-10T10:00:15;7.20;;;4.97;;
2646;SDS011;1333;50.958;6.770;2023-05-10T10:02:44;4.93;;;4.00;;
2646;SDS011;1333;50.958;6.770;2023-05-10T10:05:19;8.20;;;5.20;;
2646;SDS011;1333;50.958;6.770;2023-05-10T10:07:44;6.50;;;5.77;;
2646;SDS011;1333;50.958;6.770;2023-05-10T10:10:10;7.23;;;5.07;;
2646;SDS011;1333;50.958;6.770;2023-05-10T10:12:37;6.37;;;5.30;;
2646;SDS011;1333;50.958;6.770;2023-05-10T10:15:04;4.17;;;3.77;;
2646;SDS011;1333;50.958;6.770;2023-05-10T10:17:32;6.20;;;4.60;;
2646;SDS011;1333;50.958;6.770;2023-05-10T10:19:59;6.33;;;4.53;;
2646;SDS011;1333;50.958;6.770;2023-05-10T10:22:25;6.70;;;4.70;;
2646;SDS011;1333;50.958;6.770;2023-05-10T10:24:50;6.00;;;4.43;;
2646;SDS011;1333;50.958;6.770;2023-05-10T10:35:48;7.90;;;5.13;;
2646;SDS011;1333;50.958;6.770;2023-05-10T10:38:14;7.20;;;4.67;;
2646;SDS011;1333;50.958;6.770;2023-05-10T10:40:40;6.80;;;5.40;;
2646;SDS011;1333;50.958;6.770;2023-05-10T10:43:25;6.47;;;4.73;;
2646;SDS011;1333;50.958;6.770;2023-05-10T10:48:49;7.27;;;6.50;;
2646;SDS011;1333;50.958;6.770;2023-05-10T10:51:16;7.27;;;4.80;;
2646;SDS011;1333;50.958;6.770;2023-05-10T10:53:42;4.67;;;3.43;;
2646;SDS011;1333;50.958;6.770;2023-05-10T10:56:09;7.63;;;4.07;;
2646;SDS011;1333;50.958;6.770;2023-05-10T10:58:40;5.57;;;3.60;;
2646;SDS011;1333;50.958;6.770;2023-05-10T11:01:13;5.40;;;3.60;;
2646;SDS011;1333;50.958;6.770;2023-05-10T11:03:40;4.13;;;3.63;;
2646;SDS011;1333;50.958;6.770;2023-05-10T11:06:06;4.37;;;3.33;;
2646;SDS011;1333;50.958;6.770;2023-05-10T11:08:34;3.90;;;3.50;;
2646;SDS011;1333;50.958;6.770;2023-05-10T11:11:07;3.40;;;3.10;;
2646;SDS011;1333;50.958;6.770;2023-05-10T11:16:14;3.50;;;2.60;;
2646;SDS011;1333;50.958;6.770;2023-05-10T11:18:40;2.80;;;2.60;;
2646;SDS011;1333;50.958;6.770;2023-05-10T11:21:07;3.43;;;2.57;;
2646;SDS011;1333;50.958;6.770;2023-05-10T11:26:07;2.80;;;2.60;;
2646;SDS011;1333;50.958;6.770;2023-05-10T11:28:34;2.80;;;2.37;;
2646;SDS011;1333;50.958;6.770;2023-05-10T11:31:07;2.53;;;2.33;;
2646;SDS011;1333;50.958;6.770;2023-05-10T11:33:42;2.60;;;2.40;;
2646;SDS011;1333;50.958;6.770;2023-05-10T11:36:12;1.80;;;1.70;;
2646;SDS011;1333;50.958;6.770;2023-05-10T11:38:42;2.70;;;2.10;;
2646;SDS011;1333;50.958;6.770;2023-05-10T11:41:08;2.60;;;2.40;;
2646;SDS011;1333;50.958;6.770;2023-05-10T11:43:35;2.20;;;2.00;;
2646;SDS011;1333;50.958;6.770;2023-05-10T11:46:03;2.10;;;1.90;;
2646;SDS011;1333;50.958;6.770;2023-05-10T11:48:30;1.87;;;1.77;;
2646;SDS011;1333;50.958;6.770;2023-05-10T11:50:55;2.67;;;2.13;;
2646;SDS011;1333;50.958;6.770;2023-05-10T11:53:22;2.07;;;1.90;;
2646;SDS011;1333;50.958;6.770;2023-05-10T11:55:50;2.50;;;2.20;;
2646;SDS011;1333;50.958;6.770;2023-05-10T11:58:17;2.20;;;2.00;;
2646;SDS011;1333;50.958;6.770;2023-05-10T12:00:43;2.23;;;2.03;;
2646;SDS011;1333;50.958;6.770;2023-05-10T12:03:09;2.50;;;2.10;;
2646;SDS011;1333;50.958;6.770;2023-05-10T12:05:35;2.50;;;2.30;;
2646;SDS011;1333;50.958;6.770;2023-05-10T12:08:11;2.47;;;2.27;;
2646;SDS011;1333;50.958;6.770;2023-05-10T12:10:40;1.70;;;1.60;;
2646;SDS011;1333;50.958;6.770;2023-05-10T12:13:10;1.87;;;1.77;;
2646;SDS011;1333;50.958;6.770;2023-05-10T12:15:38;2.10;;;1.90;;
2646;SDS011;1333;50.958;6.770;2023-05-10T12:18:03;2.40;;;2.20;;
2646;SDS011;1333;50.958;6.770;2023-05-10T12:20:30;2.80;;;2.20;;
2646;SDS011;1333;50.958;6.770;2023-05-10T12:22:57;2.40;;;2.20;;
2646;SDS011;1333;50.958;6.770;2023-05-10T12:25:24;2.17;;;1.87;;
2646;SDS011;1333;50.958;6.770;2023-05-10T12:27:55;2.40;;;2.20;;
2646;SDS011;1333;50.958;6.770;2023-05-10T12:30:29;2.90;;;2.33;;
2646;SDS011;1333;50.958;6.770;2023-05-10T12:33:00;3.20;;;2.90;;
2646;SDS011;1333;50.958;6.770;2023-05-10T12:35:29;2.40;;;2.20;;
2646;SDS011;1333;50.958;6.770;2023-05-10T12:37:55;2.27;;;2.07;;
2646;SDS011;1333;50.958;6.770;2023-05-10T12:40:20;3.43;;;3.00;;
2646;SDS011;1333;50.958;6.770;2023-05-10T12:42:46;2.00;;;1.90;;
2646;SDS011;1333;50.958;6.770;2023-05-10T12:45:12;2.30;;;2.00;;
2646;SDS011;1333;50.958;6.770;2023-05-10T12:47:37;2.73;;;1.80;;
2646;SDS011;1333;50.958;6.770;2023-05-10T12:50:03;1.40;;;1.30;;
2646;SDS011;1333;50.958;6.770;2023-05-10T12:52:30;2.03;;;1.83;;
2646;SDS011;1333;50.958;6.770;2023-05-10T12:54:57;2.00;;;1.80;;
2646;SDS011;1333;50.958;6.770;2023-05-10T12:57:24;1.50;;;1.40;;
2646;SDS011;1333;50.958;6.770;2023-05-10T12:59:49;1.70;;;1.60;;
2646;SDS011;1333;50.958;6.770;2023-05-10T13:02:15;1.63;;;1.53;;
2646;SDS011;1333;50.958;6.770;2023-05-10T13:04:43;2.23;;;2.13;;
2646;SDS011;1333;50.958;6.770;2023-05-10T13:07:12;1.83;;;1.53;;
2646;SDS011;1333;50.958;6.770;2023-05-10T13:09:37;1.60;;;1.50;;
2646;SDS011;1333;50.958;6.770;2023-05-10T13:12:03;2.70;;;2.20;;
2646;SDS011;1333;50.958;6.770;2023-05-10T13:14:28;1.80;;;1.70;;
2646;SDS011;1333;50.958;6.770;2023-05-10T13:16:54;2.33;;;1.70;;
2646;SDS011;1333;50.958;6.770;2023-05-10T13:19:20;1.50;;;1.40;;
2646;SDS011;1333;50.958;6.770;2023-05-10T13:21:45;1.40;;;1.30;;
2646;SDS011;1333;50.958;6.770;2023-05-10T13:24:11;1.40;;;1.30;;
2646;SDS011;1333;50.958;6.770;2023-05-10T13:26:38;1.80;;;1.70;;
2646;SDS011;1333;50.958;6.770;2023-05-10T13:29:07;1.63;;;1.50;;
2646;SDS011;1333;50.958;6.770;2023-05-10T13:31:33;1.60;;;1.50;;
2646;SDS011;1333;50.958;6.770;2023-05-10T13:33:59;1.70;;;1.60;;
2646;SDS011;1333;50.958;6.770;2023-05-10T13:36:25;1.83;;;1.60;;
2646;SDS011;1333;50.958;6.770;2023-05-10T13:38:51;1.60;;;1.50;;
2646;SDS011;1333;50.958;6.770;2023-05-10T13:41:16;1.60;;;1.50;;
2646;SDS011;1333;50.958;6.770;2023-05-10T13:43:42;2.07;;;1.97;;
2646;SDS011;1333;50.958;6.770;2023-05-10T13:46:08;1.50;;;1.40;;
2646;SDS011;1333;50.958;6.770;2023-05-10T13:48:33;1.90;;;1.80;;
2646;SDS011;1333;50.958;6.770;2023-05-10T13:50:59;8.50;;;2.07;;
2646;SDS011;1333;50.958;6.770;2023-05-10T13:53:24;1.80;;;1.70;;
2646;SDS011;1333;50.958;6.770;2023-05-10T13:55:50;1.97;;;1.77;;
2646;SDS011;1333;50.958;6.770;2023-05-10T13:58:15;1.93;;;1.83;;
2646;SDS011;1333;50.958;6.770;2023-05-10T14:00:41;1.60;;;1.50;;
2646;SDS011;1333;50.958;6.770;2023-05-10T14:03:06;1.60;;;1.50;;
2646;SDS011;1333;50.958;6.770;2023-05-10T14:05:35;1.70;;;1.60;;
2646;SDS011;1333;50.958;6.770;2023-05-10T14:08:04;1.70;;;1.60;;
2646;SDS011;1333;50.958;6.770;2023-05-10T14:10:30;1.73;;;1.63;;
2646;SDS011;1333;50.958;6.770;2023-05-10T14:12:55;1.70;;;1.60;;
2646;SDS011;1333;50.958;6.770;2023-05-10T14:15:21;2.10;;;1.90;;
2646;SDS011;1333;50.958;6.770;2023-05-10T14:17:47;2.03;;;1.87;;
2646;SDS011;1333;50.958;6.770;2023-05-10T14:20:12;2.07;;;1.97;;
2646;SDS011;1333;50.958;6.770;2023-05-10T14:22:38;2.10;;;1.90;;
2646;SDS011;1333;50.958;6.770;2023-05-10T14:25:05;1.90;;;1.70;;
2646;SDS011;1333;50.958;6.770;2023-05-10T14:27:31;2.13;;;2.03;;
2646;SDS011;1333;50.958;6.770;2023-05-10T14:29:57;1.87;;;1.77;;
2646;SDS011;1333;50.958;6.770;2023-05-10T14:32:22;2.23;;;2.03;;
2646;SDS011;1333;50.958;6.770;2023-05-10T14:34:48;1.77;;;1.60;;
2646;SDS011;1333;50.958;6.770;2023-05-10T14:37:14;2.50;;;2.30;;
2646;SDS011;1333;50.958;6.770;2023-05-10T14:39:40;2.20;;;2.00;;
2646;SDS011;1333;50.958;6.770;2023-05-10T14:42:07;1.87;;;1.77;;
2646;SDS011;1333;50.958;6.770;2023-05-10T14:44:33;4.10;;;2.30;;
2646;SDS011;1333;50.958;6.770;2023-05-10T14:46:59;1.87;;;1.77;;
2646;SDS011;1333;50.958;6.770;2023-05-10T14:49:24;2.17;;;1.77;;
2646;SDS011;1333;50.958;6.770;2023-05-10T14:51:51;4.23;;;3.83;;
2646;SDS011;1333;50.958;6.770;2023-05-10T14:54:17;1.67;;;1.57;;
2646;SDS011;1333;50.958;6.770;2023-05-10T14:56:42;1.70;;;1.53;;
2646;SDS011;1333;50.958;6.770;2023-05-10T14:59:08;3.83;;;1.90;;
2646;SDS011;1333;50.958;6.770;2023-05-10T15:01:33;2.43;;;2.23;;
2646;SDS011;1333;50.958;6.770;2023-05-10T15:04:02;2.30;;;2.10;;
2646;SDS011;1333;50.958;6.770;2023-05-10T15:06:31;3.30;;;1.97;;
2646;SDS011;1333;50.958;6.770;2023-05-10T15:08:57;3.10;;;1.57;;
2646;SDS011;1333;50.958;6.770;2023-05-10T15:11:23;3.30;;;1.40;;
2646;SDS011;1333;50.958;6.770;2023-05-10T15:13:48;1.70;;;1.60;;
2646;SDS011;1333;50.958;6.770;2023-05-10T15:16:14;1.60;;;1.50;;
2646;SDS011;1333;50.958;6.770;2023-05-10T15:18:40;2.07;;;1.90;;
2646;SDS011;1333;50.958;6.770;2023-05-10T15:21:05;1.93;;;1.83;;
2646;SDS011;1333;50.958;6.770;2023-05-10T15:23:31;1.40;;;1.30;;
2646;SDS011;1333;50.958;6.770;2023-05-10T15:25:57;2.00;;;1.80;;
2646;SDS011;1333;50.958;6.770;2023-05-10T15:28:22;2.50;;;1.63;;
2646;SDS011;1333;50.958;6.770;2023-05-10T15:30:48;1.53;;;1.43;;
2646;SDS011;1333;50.958;6.770;2023-05-10T15:33:13;1.70;;;1.60;;
2646;SDS011;1333;50.958;6.770;2023-05-10T15:35:39;2.07;;;1.73;;
2646;SDS011;1333;50.958;6.770;2023-05-10T15:38:05;1.80;;;1.30;;
2646;SDS011;1333;50.958;6.770;2023-05-10T15:40:30;2.40;;;1.67;;
2646;SDS011;1333;50.958;6.770;2023-05-10T15:42:56;2.10;;;1.90;;
2646;SDS011;1333;50.958;6.770;2023-05-10T15:45:22;2.30;;;1.93;;
2646;SDS011;1333;50.958;6.770;2023-05-10T15:47:47;1.70;;;1.43;;